Time;durP1;ratioP1;P1;durP2;ratioP2;P2;SDS_P1;SDS_P2;PMS_P1;PMS_P2;Temp;Humidity;BMP_temperature;BMP_pressure;BME280_temperature;BME280_humidity;BME280_pressure;Samples;Min_cycle;Max_cycle;Signal;HPM_P1;HPM_P2
2022/12/02 00:01:39;;;;;;;;;;;3.10;99.90;;;;;;5054554;28;20422;-82
2022/12/02 00:04:34;;;;;;;;;;;2.80;99.90;;;;;;5053854;28;19920;-82
2022/12/02 00:06:59;;;;;;;;;;;2.70;99.90;;;;;;5036649;28;19947;-82
2022/12/02 00:09:33;;;;;;;;;;;2.70;99.90;;;;;;5023767;28;19920;-82
2022/12/02 00:11:59;;;;;;;;;;;2.70;99.90;;;;;;5053742;28;20561;-82
2022/12/02 00:14:27;;;;;;;;;;;2.60;99.90;;;;;;5039008;28;19990;-82
2022/12/02 00:16:53;;;;;;;;;;;2.60;99.90;;;;;;5053676;28;20293;-82
2022/12/02 00:19:19;;;;;;;;;;;2.60;99.90;;;;;;5037512;28;19925;-82
2022/12/02 00:21:45;;;;;;;;;;;2.90;99.90;;;;;;5035071;28;19928;-82
2022/12/02 00:24:10;;;;;;;;;;;2.50;99.90;;;;;;5055151;28;19929;-82
2022/12/02 00:26:36;;;;;;;;;;;2.50;99.90;;;;;;5034600;28;19977;-82
2022/12/02 00:29:02;;;;;;;;;;;2.80;99.90;;;;;;5037639;28;19965;-81
2022/12/02 00:31:27;;;;;;;;;;;3.00;99.90;;;;;;5037568;28;19920;-82
2022/12/02 00:33:55;;;;;;;;;;;3.50;99.90;;;;;;5045118;28;19975;-82
2022/12/02 00:36:21;;;;;;;;;;;2.50;99.90;;;;;;5038286;28;19921;-82
2022/12/02 00:38:46;;;;;;;;;;;3.20;99.90;;;;;;5040398;28;19927;-82
2022/12/02 00:41:12;;;;;;;;;;;2.40;99.90;;;;;;5056457;28;20409;-82
2022/12/02 00:46:31;;;;;;;;;;;2.40;99.90;;;;;;5053311;28;19925;-82
2022/12/02 00:49:00;;;;;;;;;;;2.40;99.90;;;;;;5030622;28;20282;-82
2022/12/02 00:51:26;;;;;;;;;;;2.40;99.90;;;;;;5039940;28;19920;-82
2022/12/02 00:53:51;;;;;;;;;;;3.00;99.90;;;;;;5038526;28;20077;-81
2022/12/02 00:56:17;;;;;;;;;;;2.30;99.90;;;;;;5053519;28;19921;-82
2022/12/02 00:58:43;;;;;;;;;;;2.30;99.90;;;;;;5030849;28;19920;-82
2022/12/02 01:01:08;;;;;;;;;;;2.30;99.90;;;;;;5037065;28;19956;-82
2022/12/02 01:03:34;;;;;;;;;;;2.30;99.90;;;;;;5035474;28;19967;-82
2022/12/02 01:06:00;;;;;;;;;;;2.30;99.90;;;;;;5036389;28;19924;-82
2022/12/02 01:08:26;;;;;;;;;;;3.00;99.90;;;;;;5034648;28;19931;-82
2022/12/02 01:10:52;;;;;;;;;;;2.20;99.90;;;;;;5044541;28;19928;-82
2022/12/02 01:13:18;;;;;;;;;;;3.20;99.90;;;;;;5055457;28;20372;-82
2022/12/02 01:15:44;;;;;;;;;;;2.90;99.90;;;;;;5053256;28;19955;-81
2022/12/02 01:18:09;;;;;;;;;;;2.20;99.90;;;;;;5019356;28;20007;-82
2022/12/02 01:20:35;;;;;;;;;;;2.20;99.90;;;;;;5036121;28;19921;-81
2022/12/02 01:23:01;;;;;;;;;;;2.20;99.90;;;;;;5051955;28;19920;-82
2022/12/02 01:25:26;;;;;;;;;;;2.20;99.90;;;;;;5055657;28;19936;-82
2022/12/02 01:27:52;;;;;;;;;;;2.10;99.90;;;;;;5020801;28;19935;-82
2022/12/02 01:30:17;;;;;;;;;;;2.10;99.90;;;;;;5052298;28;19947;-82
2022/12/02 01:32:43;;;;;;;;;;;2.10;99.90;;;;;;5053845;28;20403;-82
2022/12/02 01:35:09;;;;;;;;;;;2.10;99.90;;;;;;5031717;28;19924;-82
2022/12/02 01:37:34;;;;;;;;;;;2.50;99.90;;;;;;5057089;28;20015;-82
2022/12/02 01:40:00;;;;;;;;;;;2.10;99.90;;;;;;5051980;28;20297;-82
2022/12/02 01:42:25;;;;;;;;;;;3.10;99.90;;;;;;5038668;28;19921;-82
2022/12/02 01:44:51;;;;;;;;;;;3.20;99.90;;;;;;5022687;28;20011;-82
2022/12/02 01:47:17;;;;;;;;;;;2.10;99.90;;;;;;5051791;28;20458;-82
2022/12/02 01:49:42;;;;;;;;;;;2.50;99.90;;;;;;5017261;28;19920;-82
2022/12/02 01:52:08;;;;;;;;;;;2.10;99.90;;;;;;5050633;28;19924;-82
2022/12/02 01:54:34;;;;;;;;;;;2.20;99.90;;;;;;5035957;28;20046;-82
2022/12/02 01:57:00;;;;;;;;;;;2.10;99.90;;;;;;5034522;28;20078;-82
2022/12/02 01:59:25;;;;;;;;;;;2.10;99.90;;;;;;5051564;28;20398;-82
2022/12/02 02:01:51;;;;;;;;;;;2.10;99.90;;;;;;5051562;28;19932;-82
2022/12/02 02:04:17;;;;;;;;;;;2.10;99.90;;;;;;5032288;28;20364;-82
2022/12/02 02:06:44;;;;;;;;;;;2.80;99.90;;;;;;5050059;28;19991;-81
2022/12/02 02:09:10;;;;;;;;;;;2.00;99.90;;;;;;5035509;28;19928;-81
2022/12/02 02:11:36;;;;;;;;;;;2.00;99.90;;;;;;5050386;28;19921;-82
2022/12/02 02:14:03;;;;;;;;;;;3.00;99.90;;;;;;5014133;28;20436;-82
2022/12/02 02:16:29;;;;;;;;;;;2.00;99.90;;;;;;5035926;28;20382;-82
2022/12/02 02:18:54;;;;;;;;;;;2.00;99.90;;;;;;5053856;28;19928;-82
2022/12/02 02:21:41;;;;;;;;;;;2.10;99.90;;;;;;5054195;28;20007;-82
2022/12/02 02:24:07;;;;;;;;;;;2.00;99.90;;;;;;5041009;28;19920;-82
2022/12/02 02:26:32;;;;;;;;;;;2.00;99.90;;;;;;5017877;28;20007;-82
2022/12/02 02:28:58;;;;;;;;;;;2.00;99.90;;;;;;5051825;28;20305;-82
2022/12/02 02:31:23;;;;;;;;;;;3.00;99.90;;;;;;5037991;28;19928;-82
2022/12/02 02:33:49;;;;;;;;;;;2.00;99.90;;;;;;5054119;28;19925;-82
2022/12/02 02:36:15;;;;;;;;;;;0.70;99.90;;;;;;5045222;28;19971;-81
2022/12/02 02:38:40;;;;;;;;;;;2.00;99.90;;;;;;5056084;28;19931;-82
2022/12/02 02:41:06;;;;;;;;;;;2.00;99.90;;;;;;5039860;28;20003;-82
2022/12/02 02:43:32;;;;;;;;;;;3.50;99.90;;;;;;5059194;28;19943;-82
2022/12/02 02:45:58;;;;;;;;;;;2.00;99.90;;;;;;5038930;28;19947;-82
2022/12/02 02:48:24;;;;;;;;;;;2.00;99.90;;;;;;5035789;28;19921;-82
2022/12/02 02:50:50;;;;;;;;;;;2.40;99.90;;;;;;5040487;28;20311;-82
2022/12/02 02:53:17;;;;;;;;;;;2.00;99.90;;;;;;5039618;28;19924;-82
2022/12/02 02:55:43;;;;;;;;;;;3.00;99.90;;;;;;5036324;28;20725;-82
2022/12/02 02:58:09;;;;;;;;;;;2.00;99.90;;;;;;5033527;28;19925;-81
2022/12/02 03:00:35;;;;;;;;;;;2.90;99.90;;;;;;5031556;28;19952;-80
2022/12/02 03:03:01;;;;;;;;;;;2.00;99.90;;;;;;5042458;28;20389;-82
2022/12/02 03:05:26;;;;;;;;;;;2.00;99.90;;;;;;5053816;28;19925;-82
2022/12/02 03:07:52;;;;;;;;;;;2.00;99.90;;;;;;5020753;28;19925;-82
2022/12/02 03:10:18;;;;;;;;;;;2.00;99.90;;;;;;5043050;28;19928;-82
2022/12/02 03:12:45;;;;;;;;;;;2.00;99.90;;;;;;5038436;28;20013;-82
2022/12/02 03:15:12;;;;;;;;;;;1.90;99.90;;;;;;5061777;28;19981;-82
2022/12/02 03:17:37;;;;;;;;;;;2.00;99.90;;;;;;5057345;28;19993;-81
2022/12/02 03:20:03;;;;;;;;;;;2.00;99.90;;;;;;5035951;28;20489;-81
2022/12/02 03:22:29;;;;;;;;;;;1.90;99.90;;;;;;5045518;28;19931;-82
2022/12/02 03:24:55;;;;;;;;;;;1.90;99.90;;;;;;5037688;28;20594;-82
2022/12/02 03:27:20;;;;;;;;;;;2.00;99.90;;;;;;5053480;28;19940;-81
2022/12/02 03:29:46;;;;;;;;;;;3.30;99.90;;;;;;5041689;28;19928;-80
2022/12/02 03:32:12;;;;;;;;;;;3.40;99.90;;;;;;5024978;28;19943;-81
2022/12/02 03:34:38;;;;;;;;;;;1.90;99.90;;;;;;5058467;28;20448;-81
2022/12/02 03:37:03;;;;;;;;;;;1.90;99.90;;;;;;5045153;28;19924;-81
2022/12/02 03:39:29;;;;;;;;;;;3.30;99.90;;;;;;5044152;28;19975;-82
2022/12/02 03:41:55;;;;;;;;;;;1.90;99.90;;;;;;5016582;28;20267;-82
2022/12/02 03:44:21;;;;;;;;;;;1.90;99.90;;;;;;5054507;28;19986;-81
2022/12/02 03:46:49;;;;;;;;;;;1.90;99.90;;;;;;5028147;28;19927;-82
2022/12/02 03:49:16;;;;;;;;;;;1.90;99.90;;;;;;5022920;28;19921;-82
2022/12/02 03:51:41;;;;;;;;;;;1.90;99.90;;;;;;5039307;28;19920;-81
2022/12/02 03:54:07;;;;;;;;;;;1.90;99.90;;;;;;5053490;28;20130;-82
2022/12/02 03:56:40;;;;;;;;;;;3.70;99.90;;;;;;5026097;28;19998;-82
2022/12/02 03:59:06;;;;;;;;;;;1.90;99.90;;;;;;5054532;28;19954;-82
2022/12/02 04:01:31;;;;;;;;;;;2.20;99.90;;;;;;5040289;28;20366;-82
2022/12/02 04:03:57;;;;;;;;;;;1.90;99.90;;;;;;5054380;28;20003;-82
2022/12/02 04:06:22;;;;;;;;;;;1.90;99.90;;;;;;5036705;28;19935;-82
2022/12/02 04:08:48;;;;;;;;;;;1.90;99.90;;;;;;5057820;28;19932;-82
2022/12/02 04:11:14;;;;;;;;;;;1.90;99.90;;;;;;5053460;28;20344;-81
2022/12/02 04:13:39;;;;;;;;;;;1.90;99.90;;;;;;5033591;28;19972;-82
2022/12/02 04:16:05;;;;;;;;;;;1.90;99.90;;;;;;5055594;28;19994;-81
2022/12/02 04:18:30;;;;;;;;;;;1.90;99.90;;;;;;5032022;28;20031;-82
2022/12/02 04:20:56;;;;;;;;;;;3.50;99.90;;;;;;5038448;28;19944;-82
2022/12/02 04:23:21;;;;;;;;;;;1.80;99.90;;;;;;5046179;28;19928;-82
2022/12/02 04:25:47;;;;;;;;;;;1.80;99.90;;;;;;5031967;28;19987;-81
2022/12/02 04:28:13;;;;;;;;;;;1.80;99.90;;;;;;5026311;28;19933;-82
2022/12/02 04:30:38;;;;;;;;;;;2.00;99.90;;;;;;5039329;28;19932;-82
2022/12/02 04:33:04;;;;;;;;;;;1.80;99.90;;;;;;5056845;28;19921;-82
2022/12/02 04:35:29;;;;;;;;;;;1.90;99.90;;;;;;5053726;28;19920;-81
2022/12/02 04:37:55;;;;;;;;;;;1.70;99.90;;;;;;5062883;28;19928;-82
2022/12/02 04:40:21;;;;;;;;;;;1.80;99.90;;;;;;5050304;28;20409;-81
2022/12/02 04:42:46;;;;;;;;;;;1.70;99.90;;;;;;5037654;28;20478;-81
2022/12/02 04:45:12;;;;;;;;;;;1.80;99.90;;;;;;5034053;28;19931;-82
2022/12/02 04:47:37;;;;;;;;;;;1.80;99.90;;;;;;5040124;28;19935;-81
2022/12/02 04:50:05;;;;;;;;;;;3.20;99.90;;;;;;5042610;28;20321;-81
2022/12/02 04:52:31;;;;;;;;;;;1.80;99.90;;;;;;5021021;28;19932;-82
2022/12/02 04:54:57;;;;;;;;;;;2.30;99.90;;;;;;5021665;28;19920;-82
2022/12/02 04:57:22;;;;;;;;;;;1.80;99.90;;;;;;5056624;28;20335;-82
2022/12/02 04:59:48;;;;;;;;;;;1.70;99.90;;;;;;5040250;28;19920;-82
2022/12/02 05:02:13;;;;;;;;;;;1.80;99.90;;;;;;5040350;28;20389;-82
2022/12/02 05:04:39;;;;;;;;;;;2.30;99.90;;;;;;5039661;28;20603;-82
2022/12/02 05:07:04;;;;;;;;;;;2.70;99.90;;;;;;5041320;28;20360;-82
2022/12/02 05:09:30;;;;;;;;;;;1.80;99.90;;;;;;5032411;28;19929;-81
2022/12/02 05:11:56;;;;;;;;;;;1.70;99.90;;;;;;5039319;28;19957;-82
2022/12/02 05:14:21;;;;;;;;;;;1.80;99.90;;;;;;5057675;28;19943;-82
2022/12/02 05:16:47;;;;;;;;;;;1.80;99.90;;;;;;5048707;28;19963;-81
2022/12/02 05:19:12;;;;;;;;;;;2.80;99.90;;;;;;5055492;28;19936;-82
2022/12/02 05:21:38;;;;;;;;;;;1.70;99.90;;;;;;5037147;28;20197;-82
2022/12/02 05:24:03;;;;;;;;;;;3.00;99.90;;;;;;5031345;28;19928;-82
2022/12/02 05:26:29;;;;;;;;;;;1.80;99.90;;;;;;5051393;28;19928;-82
2022/12/02 05:28:55;;;;;;;;;;;1.70;99.90;;;;;;5053656;28;19921;-82
2022/12/02 05:31:20;;;;;;;;;;;1.80;99.90;;;;;;5029412;28;19920;-82
2022/12/02 05:33:46;;;;;;;;;;;2.10;99.90;;;;;;5053212;28;20294;-82
2022/12/02 05:36:11;;;;;;;;;;;1.70;99.90;;;;;;5025575;28;19927;-82
2022/12/02 05:38:38;;;;;;;;;;;1.80;99.90;;;;;;5037965;28;19927;-81
2022/12/02 05:41:04;;;;;;;;;;;1.70;99.90;;;;;;5055082;28;19924;-81
2022/12/02 05:43:31;;;;;;;;;;;1.80;99.90;;;;;;5036761;28;19967;-81
2022/12/02 05:45:58;;;;;;;;;;;1.70;99.90;;;;;;5056706;28;19929;-81
2022/12/02 05:48:24;;;;;;;;;;;1.80;99.90;;;;;;5035401;28;19920;-82
2022/12/02 05:50:51;;;;;;;;;;;1.80;99.90;;;;;;5051793;28;20293;-81
2022/12/02 05:53:25;;;;;;;;;;;1.80;99.90;;;;;;5052328;28;19928;-81
2022/12/02 05:55:51;;;;;;;;;;;1.70;99.90;;;;;;5054931;28;19964;-82
2022/12/02 05:58:17;;;;;;;;;;;1.70;99.90;;;;;;5054081;28;19920;-82
2022/12/02 06:00:43;;;;;;;;;;;1.70;99.90;;;;;;5035034;28;19998;-82
2022/12/02 06:03:15;;;;;;;;;;;1.70;99.90;;;;;;5039540;28;20381;-81
2022/12/02 06:05:41;;;;;;;;;;;1.70;99.90;;;;;;5056223;28;19928;-82
2022/12/02 06:08:11;;;;;;;;;;;1.70;99.90;;;;;;5045513;28;19931;-81
2022/12/02 06:10:37;;;;;;;;;;;1.70;99.90;;;;;;5059062;28;19929;-82
2022/12/02 06:13:13;;;;;;;;;;;1.70;99.90;;;;;;5052141;28;19973;-82
2022/12/02 06:15:38;;;;;;;;;;;1.70;99.90;;;;;;5044306;28;19952;-82
2022/12/02 06:18:30;;;;;;;;;;;1.70;99.90;;;;;;5039950;28;19978;-81
2022/12/02 06:20:58;;;;;;;;;;;1.60;99.90;;;;;;5050637;28;20019;-82
2022/12/02 06:23:25;;;;;;;;;;;1.60;99.90;;;;;;5037517;28;20234;-81
2022/12/02 06:25:51;;;;;;;;;;;2.50;99.90;;;;;;5033921;28;19999;-81
2022/12/02 06:28:29;;;;;;;;;;;1.60;99.90;;;;;;5039071;28;19983;-82
2022/12/02 06:30:57;;;;;;;;;;;1.70;99.90;;;;;;5059209;28;19928;-82
2022/12/02 06:33:30;;;;;;;;;;;1.60;99.90;;;;;;5056340;28;19921;-81
2022/12/02 06:35:57;;;;;;;;;;;1.60;99.90;;;;;;5061434;28;19967;-82
2022/12/02 06:38:30;;;;;;;;;;;1.60;99.90;;;;;;5054188;28;19963;-81
2022/12/02 06:41:00;;;;;;;;;;;1.60;99.90;;;;;;5058941;28;19927;-82
2022/12/02 06:43:28;;;;;;;;;;;1.60;99.90;;;;;;5039137;28;19929;-82
2022/12/02 06:45:54;;;;;;;;;;;1.60;99.90;;;;;;5050439;28;19956;-82
2022/12/02 06:48:33;;;;;;;;;;;1.60;99.90;;;;;;5058064;28;20022;-82
2022/12/02 06:51:17;;;;;;;;;;;1.60;99.90;;;;;;5039848;28;19928;-82
2022/12/02 06:53:43;;;;;;;;;;;1.60;99.90;;;;;;5058727;28;19929;-82
2022/12/02 06:56:24;;;;;;;;;;;1.50;99.90;;;;;;5044203;28;19921;-81
2022/12/02 06:58:54;;;;;;;;;;;1.60;99.90;;;;;;5058482;28;19921;-81
2022/12/02 07:01:23;;;;;;;;;;;1.60;99.90;;;;;;5059624;28;19925;-82
2022/12/02 07:03:57;;;;;;;;;;;2.00;99.90;;;;;;5040650;28;19976;-82
2022/12/02 07:06:24;;;;;;;;;;;1.60;99.90;;;;;;5059494;28;19954;-82
2022/12/02 07:08:50;;;;;;;;;;;2.30;99.90;;;;;;5058417;28;19936;-81
2022/12/02 07:11:48;;;;;;;;;;;1.50;99.90;;;;;;5033802;28;19921;-81
2022/12/02 07:14:19;;;;;;;;;;;1.50;99.90;;;;;;5056833;28;19928;-81
2022/12/02 07:16:45;;;;;;;;;;;1.50;99.90;;;;;;5043823;28;19920;-82
2022/12/02 07:19:14;;;;;;;;;;;1.50;99.90;;;;;;5041365;28;19921;-82
2022/12/02 07:21:40;;;;;;;;;;;1.50;99.90;;;;;;5036436;28;20386;-82
2022/12/02 07:24:06;;;;;;;;;;;1.50;99.90;;;;;;5057473;28;19928;-82
2022/12/02 07:26:32;;;;;;;;;;;1.50;99.90;;;;;;5049269;28;19925;-82
2022/12/02 07:28:59;;;;;;;;;;;1.50;99.90;;;;;;5043402;28;20008;-82
2022/12/02 07:31:26;;;;;;;;;;;1.50;99.90;;;;;;5057304;28;19940;-82
2022/12/02 07:33:52;;;;;;;;;;;1.50;99.90;;;;;;5054212;28;19928;-81
2022/12/02 07:36:17;;;;;;;;;;;1.50;99.90;;;;;;5058500;28;19921;-82
2022/12/02 07:38:43;;;;;;;;;;;1.50;99.90;;;;;;5028920;28;19927;-82
2022/12/02 07:41:08;;;;;;;;;;;1.50;99.90;;;;;;5039698;28;19928;-81
2022/12/02 07:43:34;;;;;;;;;;;1.50;99.90;;;;;;5037035;28;19978;-82
2022/12/02 07:46:00;;;;;;;;;;;1.50;99.90;;;;;;5054390;28;19925;-84
2022/12/02 07:48:25;;;;;;;;;;;1.50;99.90;;;;;;5031052;28;19994;-79
2022/12/02 07:50:51;;;;;;;;;;;2.00;99.90;;;;;;5047789;28;19927;-81
2022/12/02 07:53:16;;;;;;;;;;;1.50;99.90;;;;;;5031117;28;19983;-80
2022/12/02 07:55:42;;;;;;;;;;;1.50;99.90;;;;;;5031882;28;19982;-81
2022/12/02 07:58:08;;;;;;;;;;;1.50;99.90;;;;;;5030015;28;19928;-81
2022/12/02 08:00:34;;;;;;;;;;;2.50;99.90;;;;;;5046377;28;19929;-81
2022/12/02 08:03:00;;;;;;;;;;;1.50;99.90;;;;;;5014565;28;19921;-81
2022/12/02 08:05:26;;;;;;;;;;;1.50;99.90;;;;;;5014337;28;20566;-80
2022/12/02 08:07:52;;;;;;;;;;;1.50;99.90;;;;;;5048258;28;19933;-80
2022/12/02 08:10:20;;;;;;;;;;;1.60;99.90;;;;;;5016768;28;20036;-82
2022/12/02 08:12:46;;;;;;;;;;;3.00;99.90;;;;;;5014240;28;19925;-80
2022/12/02 08:15:12;;;;;;;;;;;2.10;99.90;;;;;;5048347;28;19932;-80
2022/12/02 08:17:39;;;;;;;;;;;1.60;99.90;;;;;;5030145;28;19975;-80
2022/12/02 08:20:05;;;;;;;;;;;1.60;99.90;;;;;;5028582;28;19964;-80
2022/12/02 08:22:31;;;;;;;;;;;1.60;99.90;;;;;;5045490;28;20412;-81
2022/12/02 08:24:56;;;;;;;;;;;1.90;99.90;;;;;;5030240;28;19925;-81
2022/12/02 08:27:22;;;;;;;;;;;1.60;99.90;;;;;;5027186;28;19921;-80
2022/12/02 08:29:48;;;;;;;;;;;1.60;99.90;;;;;;5048244;28;19920;-80
2022/12/02 08:32:18;;;;;;;;;;;2.10;99.90;;;;;;5044184;28;19920;-80
2022/12/02 08:34:44;;;;;;;;;;;1.60;99.90;;;;;;5030361;28;20488;-80
2022/12/02 08:37:10;;;;;;;;;;;2.40;99.90;;;;;;5030621;28;19928;-81
2022/12/02 08:39:35;;;;;;;;;;;3.20;99.90;;;;;;5030397;28;19971;-78
2022/12/02 08:42:01;;;;;;;;;;;1.60;99.90;;;;;;5044668;28;20416;-82
2022/12/02 08:44:27;;;;;;;;;;;1.60;99.90;;;;;;5028215;28;19952;-81
2022/12/02 08:46:52;;;;;;;;;;;3.80;99.90;;;;;;5027285;28;19927;-81
2022/12/02 08:49:18;;;;;;;;;;;2.20;99.90;;;;;;5028349;28;20011;-81
2022/12/02 08:51:44;;;;;;;;;;;1.60;99.90;;;;;;5046441;28;19928;-80
2022/12/02 08:54:09;;;;;;;;;;;3.50;99.90;;;;;;5045487;28;19944;-81
2022/12/02 08:56:35;;;;;;;;;;;1.70;99.90;;;;;;5031050;28;19927;-81
2022/12/02 08:59:01;;;;;;;;;;;1.70;99.90;;;;;;5048196;28;20695;-78
2022/12/02 09:01:26;;;;;;;;;;;1.70;99.90;;;;;;5048725;28;19928;-80
2022/12/02 09:03:52;;;;;;;;;;;1.70;99.90;;;;;;5013842;28;19968;-81
2022/12/02 09:06:18;;;;;;;;;;;1.70;99.90;;;;;;5032778;28;19955;-80
2022/12/02 09:08:43;;;;;;;;;;;1.80;99.90;;;;;;5031056;28;19933;-77
2022/12/02 09:11:09;;;;;;;;;;;1.80;99.90;;;;;;5043646;28;19928;-79
2022/12/02 09:13:34;;;;;;;;;;;1.70;99.90;;;;;;5028969;28;19936;-79
2022/12/02 09:16:00;;;;;;;;;;;1.70;99.90;;;;;;5008478;28;19972;-81
2022/12/02 09:18:26;;;;;;;;;;;1.80;99.90;;;;;;5024206;28;19929;-81
2022/12/02 09:20:51;;;;;;;;;;;1.80;99.90;;;;;;5026739;28;19956;-81
2022/12/02 09:23:17;;;;;;;;;;;1.80;99.90;;;;;;5027277;28;19921;-79
2022/12/02 09:25:43;;;;;;;;;;;1.80;99.90;;;;;;5024752;28;19924;-79
2022/12/02 09:28:08;;;;;;;;;;;1.70;99.90;;;;;;5005947;28;20017;-78
2022/12/02 09:30:36;;;;;;;;;;;1.80;99.90;;;;;;5041450;28;19936;-78
2022/12/02 09:33:02;;;;;;;;;;;2.40;99.90;;;;;;5038893;28;19935;-78
2022/12/02 09:35:27;;;;;;;;;;;1.70;99.90;;;;;;5043020;28;19920;-78
2022/12/02 09:37:53;;;;;;;;;;;1.70;99.90;;;;;;5027337;28;19925;-79
2022/12/02 09:40:19;;;;;;;;;;;1.70;99.90;;;;;;5042832;28;20408;-77
2022/12/02 09:42:44;;;;;;;;;;;1.80;99.90;;;;;;5026369;28;19924;-79
2022/12/02 09:45:11;;;;;;;;;;;1.80;99.90;;;;;;5044835;28;19986;-79
2022/12/02 09:47:36;;;;;;;;;;;1.80;99.90;;;;;;5011128;28;19928;-79
2022/12/02 09:50:03;;;;;;;;;;;1.80;99.90;;;;;;5041111;28;19924;-79
2022/12/02 09:52:29;;;;;;;;;;;1.80;99.90;;;;;;5041600;28;19925;-79
2022/12/02 09:54:55;;;;;;;;;;;1.80;99.90;;;;;;5026694;28;19921;-80
2022/12/02 09:57:24;;;;;;;;;;;1.80;99.90;;;;;;5028338;28;20827;-80
2022/12/02 09:59:49;;;;;;;;;;;1.70;99.90;;;;;;5029871;28;19925;-78
2022/12/02 10:02:25;;;;;;;;;;;1.70;99.90;;;;;;5030073;28;19960;-80
2022/12/02 10:04:51;;;;;;;;;;;1.70;99.90;;;;;;5043259;28;20299;-79
2022/12/02 10:07:17;;;;;;;;;;;1.70;99.90;;;;;;5038823;28;19951;-83
2022/12/02 10:09:42;;;;;;;;;;;1.70;99.90;;;;;;5040734;28;20396;-80
2022/12/02 10:12:10;;;;;;;;;;;1.70;99.90;;;;;;5023916;28;19970;-79
2022/12/02 10:14:36;;;;;;;;;;;1.70;99.90;;;;;;5009219;28;20444;-78
2022/12/02 10:17:02;;;;;;;;;;;3.00;99.90;;;;;;5041222;28;19920;-81
2022/12/02 10:19:27;;;;;;;;;;;2.00;99.90;;;;;;5044074;28;19925;-81
2022/12/02 10:21:53;;;;;;;;;;;1.90;99.90;;;;;;5026216;28;19928;-81
2022/12/02 10:24:33;;;;;;;;;;;1.80;99.90;;;;;;5042955;28;20326;-81
2022/12/02 10:26:59;;;;;;;;;;;1.60;99.90;;;;;;5026753;28;19943;-81
2022/12/02 10:29:29;;;;;;;;;;;1.50;99.90;;;;;;5043191;28;19921;-82
2022/12/02 10:31:59;;;;;;;;;;;1.50;99.90;;;;;;5032279;28;19929;-81
2022/12/02 10:34:27;;;;;;;;;;;1.50;99.90;;;;;;5029041;28;19924;-82
2022/12/02 10:36:53;;;;;;;;;;;2.40;99.90;;;;;;5028166;28;19920;-81
2022/12/02 10:39:29;;;;;;;;;;;2.00;99.90;;;;;;5045379;28;19968;-81
2022/12/02 10:42:06;;;;;;;;;;;1.50;99.90;;;;;;5025454;28;19924;-81
2022/12/02 10:44:33;;;;;;;;;;;1.60;99.90;;;;;;5039704;28;19928;-83
2022/12/02 10:47:31;;;;;;;;;;;1.60;99.90;;;;;;5039922;28;20127;-82
2022/12/02 10:49:58;;;;;;;;;;;1.60;99.90;;;;;;4990263;28;20346;-82
2022/12/02 10:52:26;;;;;;;;;;;1.90;99.90;;;;;;5043964;28;19925;-79
2022/12/02 10:54:52;;;;;;;;;;;1.90;99.90;;;;;;5045991;28;19966;-79
2022/12/02 10:57:26;;;;;;;;;;;1.60;99.90;;;;;;5026616;28;19936;-81
2022/12/02 10:59:53;;;;;;;;;;;1.60;99.90;;;;;;5041956;28;20375;-80
2022/12/02 11:02:20;;;;;;;;;;;1.60;99.90;;;;;;5043815;28;19928;-82
2022/12/02 11:04:46;;;;;;;;;;;1.60;99.90;;;;;;5057435;28;19924;-79
2022/12/02 11:07:13;;;;;;;;;;;2.80;99.90;;;;;;5023651;28;19935;-79
2022/12/02 11:09:39;;;;;;;;;;;1.60;99.90;;;;;;5036675;28;19975;-80
2022/12/02 11:12:23;;;;;;;;;;;1.60;99.90;;;;;;5041796;28;19952;-79
2022/12/02 11:14:50;;;;;;;;;;;1.70;99.90;;;;;;5031769;28;19925;-80
2022/12/02 11:17:15;;;;;;;;;;;2.00;99.90;;;;;;5029699;28;20021;-80
2022/12/02 11:19:44;;;;;;;;;;;2.10;99.90;;;;;;5043135;28;19984;-80
2022/12/02 11:22:28;;;;;;;;;;;1.60;99.90;;;;;;5026244;28;19929;-80
2022/12/02 11:24:53;;;;;;;;;;;1.30;99.90;;;;;;5045257;28;19928;-80
2022/12/02 11:27:19;;;;;;;;;;;1.60;99.90;;;;;;5029279;28;19921;-80
2022/12/02 11:30:17;;;;;;;;;;;2.40;99.90;;;;;;5044202;28;19921;-80
2022/12/02 11:32:43;;;;;;;;;;;1.60;99.90;;;;;;5020932;28;20004;-82
2022/12/02 11:35:14;;;;;;;;;;;1.70;99.90;;;;;;5027318;28;20439;-81
2022/12/02 11:37:41;;;;;;;;;;;1.70;99.90;;;;;;5039407;28;19928;-80
2022/12/02 11:40:09;;;;;;;;;;;1.70;99.90;;;;;;5024564;28;19928;-81
2022/12/02 11:42:36;;;;;;;;;;;1.70;99.90;;;;;;5032803;28;19964;-78
2022/12/02 11:45:17;;;;;;;;;;;1.70;99.90;;;;;;5031712;28;20459;-79
2022/12/02 11:47:45;;;;;;;;;;;1.70;99.90;;;;;;5046287;28;19924;-78
2022/12/02 11:50:17;;;;;;;;;;;1.70;99.90;;;;;;5055035;28;19947;-82
2022/12/02 11:52:43;;;;;;;;;;;1.70;99.90;;;;;;5039450;28;19920;-83
2022/12/02 11:55:12;;;;;;;;;;;2.00;99.90;;;;;;5056362;28;19925;-82
2022/12/02 11:57:51;;;;;;;;;;;1.70;99.90;;;;;;5039086;28;20428;-82
2022/12/02 12:00:21;;;;;;;;;;;1.70;99.90;;;;;;5037771;28;19966;-82
2022/12/02 12:03:02;;;;;;;;;;;1.70;99.90;;;;;;5031961;28;20011;-81
2022/12/02 12:05:27;;;;;;;;;;;1.70;99.90;;;;;;5051896;28;20398;-82
2022/12/02 12:07:53;;;;;;;;;;;2.10;99.90;;;;;;5049415;28;19967;-81
2022/12/02 12:10:32;;;;;;;;;;;1.70;99.90;;;;;;5034132;28;20397;-83
2022/12/02 12:13:19;;;;;;;;;;;1.70;99.90;;;;;;5043152;28;20290;-81
2022/12/02 12:15:50;;;;;;;;;;;1.70;99.90;;;;;;5037924;28;19920;-81
2022/12/02 12:18:36;;;;;;;;;;;1.70;99.90;;;;;;5039001;28;22063;-83
2022/12/02 12:21:01;;;;;;;;;;;1.60;99.90;;;;;;5036482;28;19943;-82
2022/12/02 12:23:32;;;;;;;;;;;1.80;99.90;;;;;;5030379;28;20365;-81
2022/12/02 12:25:58;;;;;;;;;;;1.80;99.90;;;;;;5055617;28;20412;-82
2022/12/02 12:28:23;;;;;;;;;;;1.80;99.90;;;;;;5052651;28;19959;-81
2022/12/02 12:30:49;;;;;;;;;;;1.70;99.90;;;;;;5039394;28;20309;-81
2022/12/02 12:33:14;;;;;;;;;;;1.80;99.90;;;;;;5055785;28;19921;-81
2022/12/02 12:35:40;;;;;;;;;;;2.00;99.90;;;;;;5039429;28;19924;-81
2022/12/02 12:38:05;;;;;;;;;;;1.80;99.90;;;;;;5053856;28;19999;-81
2022/12/02 12:40:31;;;;;;;;;;;1.70;99.90;;;;;;5041473;28;19932;-81
2022/12/02 12:42:56;;;;;;;;;;;2.40;99.90;;;;;;5050953;28;20430;-81
2022/12/02 12:45:22;;;;;;;;;;;1.70;99.90;;;;;;5038606;28;20357;-81
2022/12/02 12:47:47;;;;;;;;;;;2.20;99.90;;;;;;5054001;28;20210;-81
2022/12/02 12:50:13;;;;;;;;;;;1.70;99.90;;;;;;5038532;28;19921;-81
2022/12/02 12:52:39;;;;;;;;;;;1.70;99.90;;;;;;5035483;28;20548;-81
2022/12/02 12:55:04;;;;;;;;;;;1.80;99.90;;;;;;5034855;28;19975;-81
2022/12/02 12:57:30;;;;;;;;;;;1.80;99.90;;;;;;5031106;28;20365;-80
2022/12/02 12:59:55;;;;;;;;;;;2.00;99.90;;;;;;5049534;28;19927;-80
2022/12/02 13:02:21;;;;;;;;;;;1.90;99.90;;;;;;5018893;28;19959;-81
2022/12/02 13:04:47;;;;;;;;;;;1.80;99.90;;;;;;5028488;28;20309;-81
2022/12/02 13:07:12;;;;;;;;;;;2.10;99.90;;;;;;5034971;28;19921;-81
2022/12/02 13:09:38;;;;;;;;;;;3.70;99.90;;;;;;5047233;28;20408;-82
2022/12/02 13:12:03;;;;;;;;;;;1.90;99.90;;;;;;5017495;28;19940;-82
2022/12/02 13:14:29;;;;;;;;;;;1.90;99.90;;;;;;5033995;28;19921;-82
2022/12/02 13:16:54;;;;;;;;;;;1.90;99.90;;;;;;5040605;28;19928;-81
2022/12/02 13:19:20;;;;;;;;;;;1.90;99.90;;;;;;5032426;28;19921;-82
2022/12/02 13:21:46;;;;;;;;;;;1.90;99.90;;;;;;5035530;28;20007;-83
2022/12/02 13:24:14;;;;;;;;;;;1.90;99.90;;;;;;5036704;28;20019;-83
2022/12/02 13:26:39;;;;;;;;;;;1.90;99.90;;;;;;5030548;28;20008;-82
2022/12/02 13:29:05;;;;;;;;;;;1.90;99.90;;;;;;5035016;28;20012;-82
2022/12/02 13:31:31;;;;;;;;;;;2.10;99.90;;;;;;5035435;28;19921;-81
2022/12/02 13:33:56;;;;;;;;;;;2.10;99.90;;;;;;5034001;28;20378;-81
2022/12/02 13:36:22;;;;;;;;;;;1.90;99.90;;;;;;5056124;28;19959;-80
2022/12/02 13:38:47;;;;;;;;;;;1.80;99.90;;;;;;5033925;28;19955;-80
2022/12/02 13:41:13;;;;;;;;;;;1.90;99.90;;;;;;5048238;28;20421;-80
2022/12/02 13:43:38;;;;;;;;;;;1.90;99.90;;;;;;5052260;28;19983;-82
2022/12/02 13:46:04;;;;;;;;;;;1.80;99.90;;;;;;5037271;28;19925;-81
2022/12/02 13:48:30;;;;;;;;;;;1.90;99.90;;;;;;5032709;28;19928;-81
2022/12/02 13:50:55;;;;;;;;;;;2.10;99.90;;;;;;5021752;28;19928;-81
2022/12/02 13:53:21;;;;;;;;;;;1.80;99.90;;;;;;5051024;28;20277;-80
2022/12/02 13:55:46;;;;;;;;;;;2.50;99.90;;;;;;5033694;28;19921;-80
2022/12/02 13:58:12;;;;;;;;;;;1.80;99.90;;;;;;5051722;28;19952;-79
2022/12/02 14:00:37;;;;;;;;;;;1.80;99.90;;;;;;5055157;28;20389;-80
2022/12/02 14:03:03;;;;;;;;;;;1.80;99.90;;;;;;5022822;28;19948;-80
2022/12/02 14:05:29;;;;;;;;;;;1.80;99.90;;;;;;5037220;28;19939;-80
2022/12/02 14:07:54;;;;;;;;;;;1.90;99.90;;;;;;5038589;28;19924;-80
2022/12/02 14:10:20;;;;;;;;;;;1.90;99.90;;;;;;5026211;28;19921;-80
2022/12/02 14:12:46;;;;;;;;;;;2.30;99.90;;;;;;5034290;28;19937;-80
2022/12/02 14:15:11;;;;;;;;;;;2.10;99.90;;;;;;5017318;28;19999;-80
2022/12/02 14:17:37;;;;;;;;;;;1.90;99.90;;;;;;5050362;28;19920;-80
2022/12/02 14:20:03;;;;;;;;;;;1.90;99.90;;;;;;5054644;28;19964;-79
2022/12/02 14:22:28;;;;;;;;;;;1.90;99.90;;;;;;5014134;28;19988;-80
2022/12/02 14:24:55;;;;;;;;;;;1.90;99.90;;;;;;5055854;28;19931;-80
2022/12/02 14:27:20;;;;;;;;;;;2.10;99.90;;;;;;5019444;28;19921;-80
2022/12/02 14:29:46;;;;;;;;;;;1.90;99.90;;;;;;5043348;28;19990;-80
2022/12/02 14:32:11;;;;;;;;;;;1.90;99.90;;;;;;5057292;28;19975;-80
2022/12/02 14:34:37;;;;;;;;;;;2.40;99.90;;;;;;5050470;28;19924;-80